createdAt,value
2018-11-23T00:02:00.400Z,19.80
2018-11-23T00:04:30.193Z,20.93
2018-11-23T00:07:00.527Z,21.00
2018-11-23T00:09:30.926Z,22.30
2018-11-23T00:12:01.515Z,22.40
2018-11-23T00:14:32.041Z,22.07
2018-11-23T00:17:01.973Z,23.37
2018-11-23T00:19:33.102Z,23.97
2018-11-23T00:22:03.023Z,23.23
2018-11-23T00:24:33.949Z,22.83
2018-11-23T00:27:03.996Z,26.20
2018-11-23T00:29:34.870Z,22.80
2018-11-23T00:32:05.240Z,24.47
2018-11-23T00:34:35.414Z,23.83
2018-11-23T00:37:06.082Z,23.30
2018-11-23T00:39:35.896Z,25.13
2018-11-23T00:42:06.428Z,23.17
2018-11-23T00:44:36.698Z,23.57
2018-11-23T00:47:07.094Z,24.30
2018-11-23T00:49:37.307Z,26.23
2018-11-23T00:52:07.345Z,25.03
2018-11-23T00:54:38.020Z,25.33
2018-11-23T00:57:07.654Z,24.70
2018-11-23T00:59:38.021Z,24.77
2018-11-23T01:02:08.360Z,25.20
2018-11-23T01:04:39.098Z,24.47
2018-11-23T01:07:09.719Z,24.03
2018-11-23T01:09:39.849Z,24.73
2018-11-23T01:12:10.261Z,25.10
2018-11-23T01:14:40.245Z,24.90
2018-11-23T01:17:11.547Z,23.10
2018-11-23T01:19:41.152Z,25.20
2018-11-23T01:22:11.950Z,24.70
2018-11-23T01:24:41.630Z,24.47
2018-11-23T01:27:12.176Z,24.97
2018-11-23T01:29:42.286Z,25.77
2018-11-23T01:32:12.740Z,26.77
2018-11-23T01:34:43.246Z,26.93
2018-11-23T01:37:13.512Z,26.47
2018-11-23T01:39:43.423Z,26.77
2018-11-23T01:42:13.339Z,28.73
2018-11-23T01:44:51.113Z,26.50
2018-11-23T01:47:23.413Z,28.00
2018-11-23T01:49:54.950Z,27.83
2018-11-23T01:52:27.282Z,27.30
2018-11-23T01:54:57.210Z,26.77
2018-11-23T01:57:29.269Z,26.37
2018-11-23T02:00:00.304Z,26.23
2018-11-23T02:02:30.685Z,24.87
2018-11-23T02:05:02.241Z,25.60
2018-11-23T02:07:32.589Z,27.10
2018-11-23T02:10:03.691Z,27.33
2018-11-23T02:12:33.293Z,25.80
2018-11-23T02:15:03.657Z,26.17
2018-11-23T02:17:34.079Z,26.40
2018-11-23T02:20:04.890Z,25.40
2018-11-23T02:22:34.491Z,25.47
2018-11-23T02:25:05.473Z,25.50
2018-11-23T02:27:35.537Z,26.20
2018-11-23T02:30:09.551Z,24.03
2018-11-23T02:32:40.259Z,23.00
2018-11-23T02:35:11.371Z,23.20
2018-11-23T02:37:44.277Z,23.67
2018-11-23T02:40:18.634Z,24.10
2018-11-23T02:42:49.503Z,22.10
2018-11-23T02:45:21.749Z,22.30
2018-11-23T02:47:54.340Z,21.37
2018-11-23T02:50:24.402Z,23.20
2018-11-23T02:52:54.687Z,19.80
2018-11-23T02:55:25.060Z,20.97
2018-11-23T02:57:55.573Z,21.83
2018-11-23T03:00:25.630Z,21.17
2018-11-23T03:02:56.438Z,21.30
2018-11-23T03:05:26.854Z,21.80
2018-11-23T03:07:57.416Z,21.03
2018-11-23T03:10:28.738Z,21.17
2018-11-23T03:12:58.268Z,21.97
2018-11-23T03:15:28.477Z,21.27
2018-11-23T03:17:58.982Z,19.10
2018-11-23T03:20:29.059Z,21.67
2018-11-23T03:22:59.431Z,21.37
2018-11-23T03:25:30.353Z,20.30
2018-11-23T03:28:00.071Z,20.20
2018-11-23T03:30:30.359Z,22.33
2018-11-23T03:33:00.767Z,22.07
2018-11-23T03:35:30.709Z,23.00
2018-11-23T03:38:00.698Z,22.30
2018-11-23T03:40:31.554Z,22.23
2018-11-23T03:43:01.958Z,21.50
2018-11-23T03:45:32.275Z,23.40
2018-11-23T03:48:02.603Z,21.37
2018-11-23T03:50:33.079Z,23.07
2018-11-23T03:53:03.003Z,22.67
2018-11-23T03:55:33.897Z,23.40
2018-11-23T03:58:03.754Z,23.20
2018-11-23T04:00:33.707Z,26.00
2018-11-23T04:03:04.489Z,23.97
2018-11-23T04:05:34.850Z,23.50
2018-11-23T04:08:05.267Z,26.00
2018-11-23T04:10:39.739Z,24.50
2018-11-23T04:13:13.704Z,24.47
2018-11-23T04:15:46.399Z,24.40
2018-11-23T04:18:18.055Z,26.93
2018-11-23T04:20:53.051Z,25.80
2018-11-23T04:23:24.917Z,24.50
2018-11-23T04:25:56.886Z,27.40
2018-11-23T04:28:30.220Z,25.17
2018-11-23T04:31:02.998Z,26.03
2018-11-23T04:33:32.874Z,27.47
2018-11-23T04:36:03.994Z,26.67
2018-11-23T04:38:35.898Z,27.90
2018-11-23T04:41:07.368Z,27.30
2018-11-23T04:43:37.122Z,27.03
2018-11-23T04:46:07.245Z,27.20
2018-11-23T04:48:37.981Z,27.30
2018-11-23T04:51:07.642Z,26.87
2018-11-23T04:53:37.397Z,28.90
2018-11-23T04:56:07.182Z,27.90
2018-11-23T04:58:39.322Z,26.67
2018-11-23T05:01:11.166Z,28.00
2018-11-23T05:03:43.030Z,28.07
2018-11-23T05:06:13.608Z,26.50
2018-11-23T05:08:43.867Z,29.70
2018-11-23T05:11:14.326Z,28.43
2018-11-23T05:13:44.145Z,29.13
2018-11-23T05:16:15.068Z,27.70
2018-11-23T05:18:47.034Z,27.67
2018-11-23T05:21:19.215Z,28.40
2018-11-23T05:23:50.091Z,28.33
2018-11-23T05:26:23.185Z,28.90
2018-11-23T05:28:53.279Z,29.13
2018-11-23T05:31:23.550Z,27.87
2018-11-23T05:33:55.135Z,29.40
2018-11-23T05:36:28.242Z,27.57
2018-11-23T05:38:59.288Z,28.40
2018-11-23T05:41:31.235Z,26.20
2018-11-23T05:44:01.199Z,27.40
2018-11-23T05:46:33.231Z,27.93
2018-11-23T05:49:05.715Z,27.87
2018-11-23T05:51:35.337Z,27.27
2018-11-23T05:54:06.481Z,27.10
2018-11-23T05:56:36.390Z,27.40
2018-11-23T05:59:06.660Z,27.30
2018-11-23T06:01:36.511Z,28.43
2018-11-23T06:04:07.342Z,27.93
2018-11-23T06:06:42.261Z,28.80
2018-11-23T06:09:08.338Z,26.33
2018-11-23T06:11:38.810Z,28.17
2018-11-23T06:14:09.156Z,26.47
2018-11-23T06:16:38.848Z,27.80
2018-11-23T06:19:09.094Z,28.00
2018-11-23T06:21:40.546Z,25.80
2018-11-23T06:24:19.590Z,27.90
2018-11-23T06:26:51.600Z,26.93
2018-11-23T06:29:23.515Z,27.50
2018-11-23T06:31:55.483Z,28.73
2018-11-23T06:34:25.746Z,28.00
2018-11-23T06:36:56.830Z,26.40
2018-11-23T06:39:26.857Z,29.80
2018-11-23T06:41:57.035Z,26.90
2018-11-23T06:44:30.301Z,28.30
2018-11-23T06:47:01.343Z,27.87
2018-11-23T06:49:34.834Z,29.53
2018-11-23T06:52:04.761Z,28.70
2018-11-23T06:54:35.031Z,27.13
2018-11-23T06:57:05.617Z,27.00
2018-11-23T06:59:36.546Z,29.30
2018-11-23T07:02:07.474Z,28.27
2018-11-23T07:04:38.885Z,31.50
2018-11-23T07:07:12.122Z,28.67
2018-11-23T07:09:54.515Z,29.53
2018-11-23T07:12:27.544Z,26.70
2018-11-23T07:15:00.790Z,29.67
2018-11-23T07:17:31.966Z,29.57
2018-11-23T07:20:02.630Z,29.27
2018-11-23T07:22:32.452Z,28.10
2018-11-23T07:25:02.807Z,28.30
2018-11-23T07:27:33.779Z,29.40
2018-11-23T07:30:04.951Z,28.07
2018-11-23T07:32:37.836Z,26.03
2018-11-23T07:35:12.102Z,29.13
2018-11-23T07:37:44.081Z,27.80
2018-11-23T07:40:29.140Z,28.30
2018-11-23T07:43:00.724Z,28.80
2018-11-23T07:45:37.627Z,28.70
2018-11-23T07:48:09.515Z,30.17
2018-11-23T07:50:41.862Z,31.60
2018-11-23T07:53:13.488Z,33.33
2018-11-23T07:55:46.920Z,29.00
2018-11-23T07:58:16.920Z,29.13
2018-11-23T08:00:49.942Z,30.40
2018-11-23T08:03:21.665Z,30.83
2018-11-23T08:05:54.631Z,31.60
2018-11-23T08:08:24.981Z,30.47
2018-11-23T08:10:54.018Z,32.27
2018-11-23T08:13:25.588Z,34.20
2018-11-23T08:15:57.018Z,32.93
2018-11-23T08:18:26.651Z,32.53
2018-11-23T08:20:57.033Z,30.93
2018-11-23T08:23:28.189Z,33.70
2018-11-23T08:26:01.244Z,33.10
2018-11-23T08:28:31.408Z,30.30
2018-11-23T08:31:00.991Z,33.50
2018-11-23T08:33:32.889Z,31.60
2018-11-23T08:36:06.127Z,32.43
2018-11-23T08:38:38.274Z,33.20
2018-11-23T08:41:07.919Z,32.83
2018-11-23T08:43:40.406Z,33.73
2018-11-23T08:46:11.926Z,31.60
2018-11-23T08:48:42.422Z,33.27
2018-11-23T08:51:14.747Z,34.93
2018-11-23T08:53:46.264Z,34.00
2018-11-23T08:56:18.057Z,31.53
2018-11-23T08:58:52.510Z,31.60
2018-11-23T09:01:24.127Z,31.23
2018-11-23T09:03:56.589Z,33.30
2018-11-23T09:06:28.002Z,35.93
2018-11-23T09:09:01.308Z,34.40
2018-11-23T09:11:33.541Z,32.33
2018-11-23T09:14:04.166Z,32.13
2018-11-23T09:16:34.500Z,34.97
2018-11-23T09:19:06.145Z,33.17
2018-11-23T09:21:38.256Z,33.77
2018-11-23T09:24:14.646Z,31.70
2018-11-23T09:26:44.392Z,31.83
2018-11-23T09:29:15.545Z,34.07
2018-11-23T09:31:45.662Z,33.30
2018-11-23T09:34:17.317Z,35.10
2018-11-23T09:36:49.383Z,34.00
2018-11-23T09:39:20.721Z,31.53
2018-11-23T09:41:52.574Z,32.57
2018-11-23T09:44:23.397Z,33.70
2018-11-23T09:46:53.325Z,33.27
2018-11-23T09:49:24.070Z,30.77
2018-11-23T09:51:54.744Z,32.83
2018-11-23T09:54:24.699Z,31.83
2018-11-23T09:56:54.737Z,33.50
2018-11-23T09:59:25.440Z,33.63
2018-11-23T10:01:55.333Z,31.70
2018-11-23T10:07:21.720Z,33.03
2018-11-23T10:10:05.986Z,33.80
2018-11-23T10:12:49.246Z,32.30
2018-11-23T10:15:23.815Z,33.70
2018-11-23T10:17:57.044Z,31.60
2018-11-23T10:20:30.402Z,32.23
2018-11-23T10:23:04.371Z,30.67
2018-11-23T10:25:37.538Z,30.23
2018-11-23T10:28:11.688Z,32.20
2018-11-23T10:30:45.590Z,31.40
2018-11-23T10:33:16.435Z,28.90
2018-11-23T10:35:46.946Z,28.93
2018-11-23T10:38:19.022Z,31.63
2018-11-23T10:40:51.070Z,31.77
2018-11-23T10:43:25.193Z,29.63
2018-11-23T10:45:59.985Z,30.23
2018-11-23T10:48:32.678Z,30.37
2018-11-23T10:51:04.950Z,30.00
2018-11-23T10:53:34.527Z,28.70
2018-11-23T10:56:04.948Z,28.30
2018-11-23T10:58:35.386Z,27.60
2018-11-23T11:01:10.966Z,28.60
2018-11-23T11:03:47.711Z,29.97
2018-11-23T11:06:26.111Z,30.17
2018-11-23T11:08:57.686Z,30.20
2018-11-23T11:11:28.073Z,28.63
2018-11-23T11:13:57.818Z,27.97
2018-11-23T11:16:28.953Z,30.50
2018-11-23T11:18:59.881Z,27.50
2018-11-23T11:21:32.470Z,27.97
2018-11-23T11:24:04.856Z,28.17
2018-11-23T11:26:36.809Z,27.00
2018-11-23T11:29:08.189Z,30.80
2018-11-23T11:31:39.848Z,28.20
2018-11-23T11:34:09.880Z,29.00
2018-11-23T11:36:41.509Z,29.03
2018-11-23T11:39:18.210Z,28.33
2018-11-23T11:41:46.906Z,29.47
2018-11-23T11:44:17.909Z,29.07
2018-11-23T11:46:50.194Z,28.30
2018-11-23T11:49:21.122Z,29.00
2018-11-23T11:51:51.078Z,27.80
2018-11-23T11:54:21.923Z,27.37
2018-11-23T11:56:53.914Z,28.73
2018-11-23T11:59:26.820Z,27.47
2018-11-23T12:01:58.958Z,25.90
2018-11-23T12:04:29.075Z,27.90
2018-11-23T12:06:59.703Z,26.63
2018-11-23T12:09:30.543Z,26.50
2018-11-23T12:12:01.077Z,27.20
2018-11-23T12:14:33.113Z,25.93
2018-11-23T12:17:06.855Z,25.20
2018-11-23T12:19:37.801Z,24.80
2018-11-23T12:22:08.501Z,23.53
2018-11-23T12:24:38.459Z,24.20
2018-11-23T12:27:08.076Z,24.70
2018-11-23T12:29:40.168Z,24.30
2018-11-23T12:32:12.743Z,23.10
2018-11-23T12:34:47.138Z,22.50
2018-11-23T12:37:17.793Z,21.97
2018-11-23T12:39:49.431Z,22.63
2018-11-23T12:42:19.682Z,22.80
2018-11-23T12:44:50.069Z,24.80
2018-11-23T12:47:20.156Z,22.07
2018-11-23T12:49:51.307Z,24.87
2018-11-23T12:52:21.682Z,23.37
2018-11-23T12:54:53.503Z,22.07
2018-11-23T12:57:29.327Z,22.50
2018-11-23T13:00:02.812Z,24.00
2018-11-23T13:02:35.208Z,22.47
2018-11-23T13:05:08.750Z,23.93
2018-11-23T13:07:40.166Z,20.93
2018-11-23T13:10:12.546Z,22.27
2018-11-23T13:12:42.640Z,21.87
2018-11-23T13:15:14.125Z,22.37
2018-11-23T13:17:46.895Z,22.90
2018-11-23T13:20:17.074Z,22.03
2018-11-23T13:22:47.570Z,24.00
2018-11-23T13:25:20.992Z,21.67
2018-11-23T13:27:54.505Z,22.77
2018-11-23T13:30:29.599Z,22.00
2018-11-23T13:33:00.588Z,22.43
2018-11-23T13:35:31.556Z,23.13
2018-11-23T13:38:02.297Z,20.20
2018-11-23T13:40:35.249Z,22.10
2018-11-23T13:43:07.383Z,21.03
2018-11-23T13:45:39.282Z,20.47
2018-11-23T13:48:11.547Z,22.40
2018-11-23T13:50:43.147Z,24.80
2018-11-23T13:53:15.149Z,23.57
2018-11-23T13:55:45.563Z,21.53
2018-11-23T13:58:17.050Z,19.23
2018-11-23T14:00:51.446Z,20.10
2018-11-23T14:03:25.406Z,19.13
2018-11-23T14:05:57.212Z,17.93
2018-11-23T14:08:32.313Z,18.60
2018-11-23T14:11:04.153Z,17.33
2018-11-23T14:13:45.013Z,17.63
2018-11-23T14:16:16.363Z,17.17
2018-11-23T14:18:50.351Z,18.47
2018-11-23T14:21:21.699Z,19.30
2018-11-23T14:23:54.836Z,19.60
2018-11-23T14:26:25.926Z,19.43
2018-11-23T14:28:56.040Z,18.23
2018-11-23T14:31:25.831Z,18.53
2018-11-23T14:34:00.958Z,18.23
2018-11-23T14:36:34.282Z,20.60
2018-11-23T14:39:10.478Z,20.17
2018-11-23T14:41:44.282Z,19.20
2018-11-23T14:44:15.927Z,19.10
2018-11-23T14:46:47.958Z,19.50
2018-11-23T14:49:19.279Z,19.50
2018-11-23T14:51:51.580Z,19.63
2018-11-23T14:54:25.352Z,18.13
2018-11-23T14:56:58.975Z,20.77
2018-11-23T14:59:31.233Z,18.90
2018-11-23T15:02:06.926Z,19.20
2018-11-23T15:04:38.350Z,20.03
2018-11-23T15:07:08.292Z,21.37
2018-11-23T15:09:42.206Z,21.17
2018-11-23T15:12:12.186Z,21.40
2018-11-23T15:14:42.356Z,22.23
2018-11-23T15:17:12.592Z,20.60
2018-11-23T15:19:45.990Z,21.00
2018-11-23T15:22:16.358Z,19.90
2018-11-23T15:24:47.983Z,19.83
2018-11-23T15:27:20.391Z,20.83
2018-11-23T15:29:52.765Z,20.53
2018-11-23T15:32:27.218Z,20.87
2018-11-23T15:34:58.113Z,21.23
2018-11-23T15:37:28.084Z,20.93
2018-11-23T15:40:01.702Z,20.83
2018-11-23T15:42:31.823Z,20.23
2018-11-23T15:45:02.343Z,20.97
2018-11-23T15:47:34.424Z,19.97
2018-11-23T15:50:13.064Z,20.47
2018-11-23T15:52:45.679Z,21.70
2018-11-23T15:55:24.845Z,20.40
2018-11-23T15:57:57.170Z,21.70
2018-11-23T16:00:29.774Z,21.30
2018-11-23T16:03:01.277Z,21.70
2018-11-23T16:05:32.881Z,20.60
2018-11-23T16:08:05.258Z,23.03
2018-11-23T16:10:37.544Z,20.33
2018-11-23T16:13:11.338Z,22.90
2018-11-23T16:15:42.459Z,21.23
2018-11-23T16:18:14.656Z,22.70
2018-11-23T16:20:49.767Z,21.87
2018-11-23T16:23:22.154Z,21.77
2018-11-23T16:25:54.535Z,24.70
2018-11-23T16:28:26.484Z,23.00
2018-11-23T16:31:05.340Z,23.93
2018-11-23T16:33:36.985Z,24.50
2018-11-23T16:36:10.903Z,23.50
2018-11-23T16:38:43.327Z,23.77
2018-11-23T16:41:13.613Z,21.60
2018-11-23T16:43:47.339Z,24.13
2018-11-23T16:46:20.073Z,23.87
2018-11-23T16:48:53.252Z,23.50
2018-11-23T16:51:33.195Z,24.80
2018-11-23T16:54:11.161Z,22.87
2018-11-23T16:56:46.694Z,24.10
2018-11-23T16:59:21.365Z,23.97
2018-11-23T17:01:59.926Z,23.70
2018-11-23T17:04:35.607Z,24.03
2018-11-23T17:07:13.041Z,23.70
2018-11-23T17:09:45.917Z,25.20
2018-11-23T17:12:21.503Z,24.13
2018-11-23T17:14:53.468Z,23.83
2018-11-23T17:17:30.251Z,24.43
2018-11-23T17:20:00.664Z,25.33
2018-11-23T17:22:41.218Z,24.77
2018-11-23T17:25:19.841Z,23.37
2018-11-23T17:27:58.590Z,25.23
2018-11-23T17:30:32.394Z,26.67
2018-11-23T17:33:04.044Z,25.60
2018-11-23T17:35:34.476Z,23.27
2018-11-23T17:38:09.295Z,23.47
2018-11-23T17:40:42.443Z,24.80
2018-11-23T17:43:21.302Z,24.50
2018-11-23T17:45:57.884Z,24.50
2018-11-23T17:48:32.480Z,24.63
2018-11-23T17:51:05.420Z,23.83
2018-11-23T17:53:38.047Z,25.70
2018-11-23T17:56:09.622Z,22.87
2018-11-23T17:58:47.399Z,24.10
2018-11-23T18:01:18.035Z,25.07
2018-11-23T18:03:50.724Z,23.30
2018-11-23T18:06:23.921Z,24.30
2018-11-23T18:08:54.919Z,25.40
2018-11-23T18:11:30.298Z,24.97
2018-11-23T18:14:05.739Z,25.17
2018-11-23T18:16:36.720Z,23.87
2018-11-23T18:19:07.421Z,25.83
2018-11-23T18:21:38.944Z,26.47
2018-11-23T18:24:08.816Z,24.97
2018-11-23T18:26:39.819Z,24.97
2018-11-23T18:29:11.453Z,24.03
2018-11-23T18:31:43.520Z,23.87
2018-11-23T18:34:17.982Z,23.37
2018-11-23T18:36:50.787Z,25.70
2018-11-23T18:39:21.782Z,24.57
2018-11-23T18:41:55.697Z,26.43
2018-11-23T18:44:27.151Z,27.27
2018-11-23T18:46:59.658Z,26.03
2018-11-23T18:49:29.781Z,25.37
2018-11-23T18:52:02.972Z,28.07
2018-11-23T18:54:33.127Z,28.27
2018-11-23T18:57:06.450Z,27.13
2018-11-23T18:59:38.862Z,26.97
2018-11-23T19:02:11.210Z,26.30
2018-11-23T19:04:44.254Z,28.57
2018-11-23T19:07:16.384Z,28.20
2018-11-23T19:09:48.888Z,29.50
2018-11-23T19:12:28.130Z,27.97
2018-11-23T19:15:00.126Z,27.50
2018-11-23T19:17:33.278Z,27.03
2018-11-23T19:20:05.894Z,27.70
2018-11-23T19:22:37.244Z,27.03
2018-11-23T19:25:09.354Z,27.43
2018-11-23T19:27:45.789Z,25.37
2018-11-23T19:30:28.580Z,24.97
2018-11-23T19:32:58.488Z,25.90
2018-11-23T19:35:32.456Z,26.73
2018-11-23T19:38:06.061Z,24.50
2018-11-23T19:40:38.467Z,24.60
2018-11-23T19:43:10.624Z,28.40
2018-11-23T19:45:46.084Z,26.63
2018-11-23T19:48:18.255Z,26.30
2018-11-23T19:50:52.484Z,27.43
2018-11-23T19:53:25.196Z,29.57
2018-11-23T19:56:00.242Z,27.00
2018-11-23T19:58:31.490Z,25.90
2018-11-23T20:01:01.958Z,26.23
2018-11-23T20:03:34.927Z,23.93
2018-11-23T20:06:06.832Z,23.87
2018-11-23T20:08:39.582Z,24.30
2018-11-23T20:11:10.791Z,25.80
2018-11-23T20:13:44.765Z,25.60
2018-11-23T20:16:23.518Z,22.93
2018-11-23T20:18:59.079Z,23.63
2018-11-23T20:21:29.232Z,23.00
2018-11-23T20:23:59.622Z,24.63
2018-11-23T20:26:30.794Z,22.80
2018-11-23T20:29:04.870Z,22.40
2018-11-23T20:31:40.756Z,20.80
2018-11-23T20:34:26.063Z,21.37
2018-11-23T20:37:14.254Z,20.27
2018-11-23T20:39:48.622Z,20.57
2018-11-23T20:42:20.396Z,20.50
2018-11-23T20:44:53.467Z,20.90
2018-11-23T20:47:26.533Z,20.40
2018-11-23T20:49:58.375Z,19.87
2018-11-23T20:52:32.344Z,21.30
2018-11-23T20:55:04.235Z,19.40
2018-11-23T20:57:38.148Z,21.50
2018-11-23T21:00:18.398Z,20.67
2018-11-23T21:02:50.728Z,19.77
2018-11-23T21:05:27.959Z,20.20
2018-11-23T21:07:58.978Z,19.67
2018-11-23T21:10:31.614Z,19.63
2018-11-23T21:13:04.100Z,20.43
2018-11-23T21:15:39.621Z,18.50
2018-11-23T21:18:10.542Z,23.03
2018-11-23T21:20:47.548Z,20.83
2018-11-23T21:23:21.686Z,21.50
2018-11-23T21:25:53.295Z,20.57
2018-11-23T21:28:30.594Z,20.77
2018-11-23T21:31:04.443Z,21.30
2018-11-23T21:33:41.473Z,21.80
2018-11-23T21:36:16.595Z,23.23
2018-11-23T21:38:55.994Z,21.70
2018-11-23T21:41:35.375Z,21.90
2018-11-23T21:44:09.836Z,22.17
2018-11-23T21:46:41.719Z,22.40
2018-11-23T21:49:17.564Z,21.57
2018-11-23T21:51:57.252Z,22.53
2018-11-23T21:54:35.250Z,22.10
2018-11-23T21:57:08.919Z,22.60
2018-11-23T21:59:44.420Z,21.40
2018-11-23T22:02:17.351Z,22.60
2018-11-23T22:04:51.120Z,21.37
2018-11-23T22:07:23.752Z,22.17
2018-11-23T22:09:55.538Z,20.63
2018-11-23T22:12:25.913Z,21.00
2018-11-23T22:14:57.536Z,19.00
2018-11-23T22:17:27.753Z,19.10
2018-11-23T22:20:00.444Z,18.10
2018-11-23T22:22:33.064Z,19.40
2018-11-23T22:25:08.162Z,18.73
2018-11-23T22:27:41.195Z,18.70
2018-11-23T22:30:15.560Z,18.77
2018-11-23T22:32:45.217Z,19.63
2018-11-23T22:35:15.705Z,21.23
2018-11-23T22:37:48.313Z,19.00
2018-11-23T22:40:19.518Z,19.30
2018-11-23T22:42:53.530Z,17.90
2018-11-23T22:45:25.342Z,18.23
2018-11-23T22:47:56.325Z,18.50
2018-11-23T22:50:30.931Z,19.60
2018-11-23T22:53:05.173Z,17.90
2018-11-23T22:55:37.117Z,18.30
2018-11-23T22:58:09.819Z,19.20
2018-11-23T23:00:47.607Z,19.87
2018-11-23T23:03:26.354Z,18.57
2018-11-23T23:06:01.572Z,18.53
2018-11-23T23:08:34.818Z,17.77
2018-11-23T23:11:08.060Z,19.10
2018-11-23T23:13:38.975Z,18.10
2018-11-23T23:16:13.025Z,18.20
2018-11-23T23:18:45.324Z,16.77
2018-11-23T23:21:16.807Z,17.60
2018-11-23T23:23:55.690Z,18.13
2018-11-23T23:26:27.994Z,19.57
2018-11-23T23:28:59.283Z,17.10
2018-11-23T23:31:34.047Z,18.40
2018-11-23T23:34:06.191Z,19.23
2018-11-23T23:36:38.239Z,16.67
2018-11-23T23:39:11.441Z,19.23
2018-11-23T23:41:41.935Z,18.20
2018-11-23T23:44:12.158Z,18.77
2018-11-23T23:46:44.360Z,18.50
2018-11-23T23:49:18.501Z,19.27
2018-11-23T23:51:50.673Z,18.40
2018-11-23T23:54:23.976Z,19.80
2018-11-23T23:56:56.717Z,19.63
2018-11-23T23:59:26.478Z,19.80
